createdAt,value
2023-05-16T00:00:53.107Z,79.00
2023-05-16T00:03:54.851Z,79.20
2023-05-16T00:06:56.479Z,79.40
2023-05-16T00:09:58.158Z,79.80
2023-05-16T00:13:01.771Z,80.30
2023-05-16T00:16:05.188Z,80.70
2023-05-16T00:19:07.270Z,80.80
2023-05-16T00:22:08.846Z,80.90
2023-05-16T00:25:10.602Z,81.30
2023-05-16T00:28:12.195Z,81.90
2023-05-16T00:31:14.069Z,82.20
2023-05-16T00:34:15.857Z,82.30
2023-05-16T00:37:17.534Z,82.90
2023-05-16T00:40:19.257Z,83.10
2023-05-16T00:43:20.857Z,83.30
2023-05-16T00:46:22.488Z,83.50
2023-05-16T00:49:24.556Z,83.70
2023-05-16T00:52:26.506Z,83.80
2023-05-16T00:55:28.511Z,83.70
2023-05-16T00:58:32.362Z,84.00
2023-05-16T01:01:35.414Z,84.20
2023-05-16T01:04:37.146Z,84.30
2023-05-16T01:07:38.890Z,84.40
2023-05-16T01:10:49.975Z,84.60
2023-05-16T01:14:03.687Z,84.80
2023-05-16T01:17:08.217Z,84.90
2023-05-16T01:20:19.465Z,84.90
2023-05-16T01:23:53.889Z,85.00
2023-05-16T01:26:57.412Z,84.80
2023-05-16T01:29:59.005Z,84.70
2023-05-16T01:33:01.116Z,84.80
2023-05-16T01:36:26.508Z,84.70
2023-05-16T01:39:43.836Z,84.60
2023-05-16T01:42:50.482Z,84.60
2023-05-16T01:46:00.421Z,84.40
2023-05-16T01:49:19.325Z,84.40
2023-05-16T01:52:42.671Z,84.40
2023-05-16T01:55:48.278Z,84.60
2023-05-16T01:58:51.874Z,84.50
2023-05-16T02:01:55.124Z,84.20
2023-05-16T02:04:56.731Z,84.30
2023-05-16T02:07:59.275Z,84.20
2023-05-16T02:11:01.905Z,84.30
2023-05-16T02:14:03.682Z,84.60
2023-05-16T02:17:06.125Z,84.50
2023-05-16T02:20:11.313Z,84.50
2023-05-16T02:23:12.894Z,84.50
2023-05-16T02:26:14.550Z,84.60
2023-05-16T02:29:16.759Z,84.60
2023-05-16T02:32:18.314Z,84.70
2023-05-16T02:35:20.323Z,84.80
2023-05-16T02:38:21.976Z,85.00
2023-05-16T02:41:23.984Z,85.10
2023-05-16T02:44:25.600Z,85.40
2023-05-16T02:47:27.390Z,85.60
2023-05-16T02:50:28.996Z,86.00
2023-05-16T02:53:30.550Z,85.90
2023-05-16T02:56:32.127Z,86.10
2023-05-16T02:59:33.733Z,86.30
2023-05-16T03:02:35.774Z,86.50
2023-05-16T03:05:37.483Z,86.80
2023-05-16T03:08:39.109Z,86.80
2023-05-16T03:11:40.870Z,87.10
2023-05-16T03:14:42.452Z,87.30
2023-05-16T03:17:44.069Z,87.50
2023-05-16T03:20:45.863Z,87.50
2023-05-16T03:23:47.455Z,87.50
2023-05-16T03:26:49.351Z,87.60
2023-05-16T03:29:51.424Z,87.80
2023-05-16T03:32:53.079Z,87.80
2023-05-16T03:35:54.720Z,88.10
2023-05-16T03:38:56.344Z,88.40
2023-05-16T03:41:58.083Z,88.20
2023-05-16T03:44:59.651Z,88.40
2023-05-16T03:48:01.423Z,88.30
2023-05-16T03:51:03.101Z,88.30
2023-05-16T03:54:05.145Z,88.30
2023-05-16T03:57:07.308Z,88.30
2023-05-16T04:00:11.369Z,88.20
2023-05-16T04:03:13.113Z,88.00
2023-05-16T04:06:14.932Z,88.00
2023-05-16T04:09:16.966Z,87.80
2023-05-16T04:12:18.558Z,87.60
2023-05-16T04:15:21.303Z,87.30
2023-05-16T04:18:22.926Z,86.90
2023-05-16T04:21:24.650Z,86.90
2023-05-16T04:24:28.739Z,86.40
2023-05-16T04:27:31.453Z,86.00
2023-05-16T04:30:33.326Z,85.70
2023-05-16T04:33:34.914Z,85.10
2023-05-16T04:36:37.129Z,85.20
2023-05-16T04:39:39.047Z,84.90
2023-05-16T04:42:40.778Z,84.20
2023-05-16T04:45:43.205Z,83.80
2023-05-16T04:48:44.787Z,83.50
2023-05-16T04:51:48.245Z,83.60
2023-05-16T04:54:52.988Z,83.50
2023-05-16T04:57:54.645Z,83.30
2023-05-16T05:00:56.334Z,82.90
2023-05-16T05:03:58.262Z,83.00
2023-05-16T05:06:59.995Z,82.00
2023-05-16T05:10:01.765Z,82.00
2023-05-16T05:13:03.425Z,81.50
2023-05-16T05:16:06.023Z,81.10
2023-05-16T05:19:08.960Z,80.80
2023-05-16T05:22:10.775Z,80.60
2023-05-16T05:25:12.488Z,80.10
2023-05-16T05:28:14.104Z,79.50
2023-05-16T05:31:16.576Z,80.10
2023-05-16T05:34:18.205Z,80.20
2023-05-16T05:37:19.929Z,79.80
2023-05-16T05:40:21.553Z,79.60
2023-05-16T05:43:23.190Z,79.70
2023-05-16T05:46:25.753Z,79.50
2023-05-16T05:49:28.404Z,79.10
2023-05-16T05:52:30.214Z,78.10
2023-05-16T05:55:31.758Z,77.30
2023-05-16T05:58:33.317Z,78.00
2023-05-16T06:01:35.107Z,78.10
2023-05-16T06:04:36.747Z,78.20
2023-05-16T06:07:38.520Z,78.50
2023-05-16T06:10:40.118Z,79.30
2023-05-16T06:13:41.718Z,79.20
2023-05-16T06:16:43.553Z,79.40
2023-05-16T06:19:45.300Z,79.70
2023-05-16T06:22:47.071Z,79.20
2023-05-16T06:25:48.889Z,79.10
2023-05-16T06:28:50.721Z,79.40
2023-05-16T06:31:52.354Z,79.30
2023-05-16T06:34:54.143Z,79.20
2023-05-16T06:37:55.732Z,79.30
2023-05-16T06:40:57.361Z,79.50
2023-05-16T06:43:58.971Z,79.70
2023-05-16T06:47:05.969Z,79.30
2023-05-16T06:50:08.666Z,79.20
2023-05-16T06:53:12.023Z,79.30
2023-05-16T06:56:13.789Z,79.40
2023-05-16T06:59:15.674Z,79.60
2023-05-16T07:02:17.695Z,79.70
2023-05-16T07:05:19.561Z,76.40
2023-05-16T07:08:21.434Z,76.60
2023-05-16T07:11:23.289Z,76.00
2023-05-16T07:14:25.067Z,76.60
2023-05-16T07:17:26.884Z,76.40
2023-05-16T07:20:28.996Z,76.60
2023-05-16T07:23:31.160Z,76.60
2023-05-16T07:26:34.315Z,77.00
2023-05-16T07:29:37.343Z,76.10
2023-05-16T07:32:39.594Z,75.90
2023-05-16T07:35:41.344Z,76.30
2023-05-16T07:38:43.648Z,77.00
2023-05-16T07:41:45.366Z,77.80
2023-05-16T07:44:47.513Z,77.70
2023-05-16T07:47:49.314Z,78.80
2023-05-16T07:50:51.861Z,79.00
2023-05-16T07:53:54.493Z,79.70
2023-05-16T07:56:56.959Z,80.10
2023-05-16T07:59:58.633Z,81.20
2023-05-16T08:03:00.539Z,80.70
2023-05-16T08:06:02.520Z,81.30
2023-05-16T08:09:04.373Z,81.30
2023-05-16T08:12:06.529Z,80.50
2023-05-16T08:15:09.244Z,81.30
2023-05-16T08:18:15.073Z,80.80
2023-05-16T08:21:17.040Z,80.30
2023-05-16T08:24:18.746Z,80.60
2023-05-16T08:27:20.476Z,80.50
2023-05-16T08:30:22.128Z,80.70
2023-05-16T08:33:24.497Z,80.20
2023-05-16T08:36:26.233Z,77.60
2023-05-16T08:39:27.965Z,79.20
2023-05-16T08:42:29.671Z,79.50
2023-05-16T08:45:31.647Z,79.40
2023-05-16T08:48:36.700Z,79.60
2023-05-16T08:51:38.718Z,80.60
2023-05-16T08:54:41.909Z,80.30
2023-05-16T08:57:45.044Z,79.70
2023-05-16T09:00:48.168Z,78.80
2023-05-16T09:03:53.620Z,78.40
2023-05-16T09:06:55.868Z,78.70
2023-05-16T09:09:57.586Z,75.40
2023-05-16T09:12:59.669Z,75.90
2023-05-16T09:16:17.745Z,75.40
2023-05-16T09:19:19.520Z,75.10
2023-05-16T09:22:23.947Z,73.90
2023-05-16T09:25:31.319Z,72.60
2023-05-16T09:28:34.544Z,73.90
2023-05-16T09:31:39.016Z,72.80
2023-05-16T09:34:51.532Z,73.00
2023-05-16T09:37:56.710Z,72.00
2023-05-16T09:40:58.958Z,72.40
2023-05-16T09:44:05.000Z,72.70
2023-05-16T09:47:07.011Z,71.30
2023-05-16T09:50:09.213Z,71.90
2023-05-16T09:53:14.060Z,70.50
2023-05-16T09:56:16.420Z,70.50
2023-05-16T09:59:18.133Z,69.00
2023-05-16T10:02:20.494Z,69.10
2023-05-16T10:05:22.639Z,68.70
2023-05-16T10:08:25.816Z,70.40
2023-05-16T10:11:27.921Z,67.40
2023-05-16T10:14:33.934Z,66.90
2023-05-16T10:17:38.961Z,65.20
2023-05-16T10:20:43.543Z,65.10
2023-05-16T10:23:50.099Z,63.80
2023-05-16T10:26:52.550Z,64.10
2023-05-16T10:29:55.275Z,62.90
2023-05-16T10:32:59.231Z,63.60
2023-05-16T10:36:05.522Z,64.60
2023-05-16T10:39:07.710Z,64.10
2023-05-16T10:42:09.711Z,66.10
2023-05-16T10:45:21.220Z,66.20
2023-05-16T10:48:36.664Z,66.70
2023-05-16T10:51:39.017Z,66.40
2023-05-16T10:54:44.833Z,67.00
2023-05-16T10:57:47.546Z,66.20
2023-05-16T11:00:49.902Z,66.60
2023-05-16T11:03:57.828Z,67.20
2023-05-16T11:07:01.242Z,65.50
2023-05-16T11:10:11.507Z,64.00
2023-05-16T11:13:13.184Z,63.50
2023-05-16T11:16:27.675Z,62.80
2023-05-16T11:19:32.287Z,62.20
2023-05-16T11:22:40.519Z,62.50
2023-05-16T11:25:43.204Z,62.60
2023-05-16T11:28:49.794Z,61.20
2023-05-16T11:31:52.969Z,58.70
2023-05-16T11:34:57.149Z,59.70
2023-05-16T11:37:58.827Z,58.40
2023-05-16T11:41:07.986Z,56.50
2023-05-16T11:44:15.309Z,56.80
2023-05-16T11:47:17.029Z,55.90
2023-05-16T11:50:21.016Z,55.60
2023-05-16T11:53:26.005Z,54.90
2023-05-16T11:56:28.097Z,54.00
2023-05-16T11:59:29.943Z,52.90
2023-05-16T12:02:32.539Z,53.70
2023-05-16T12:05:35.370Z,53.60
2023-05-16T12:08:37.508Z,52.80
2023-05-16T12:11:45.285Z,51.40
2023-05-16T12:14:47.296Z,50.80
2023-05-16T12:17:49.383Z,52.80
2023-05-16T12:20:52.380Z,50.20
2023-05-16T12:23:56.683Z,50.80
2023-05-16T12:26:59.049Z,50.00
2023-05-16T12:30:00.715Z,50.30
2023-05-16T12:33:08.405Z,49.50
2023-05-16T12:36:14.483Z,49.50
2023-05-16T12:39:16.326Z,49.10
2023-05-16T12:42:19.528Z,49.70
2023-05-16T12:45:23.074Z,49.20
2023-05-16T12:48:30.427Z,48.30
2023-05-16T12:51:33.965Z,48.70
2023-05-16T12:54:37.184Z,47.30
2023-05-16T12:57:43.398Z,47.80
2023-05-16T13:00:45.221Z,48.10
2023-05-16T13:03:47.157Z,48.50
2023-05-16T13:06:59.222Z,47.00
2023-05-16T13:10:01.992Z,46.40
2023-05-16T13:13:04.426Z,47.60
2023-05-16T13:16:27.201Z,47.60
2023-05-16T13:19:31.645Z,48.00
2023-05-16T13:22:33.266Z,47.20
2023-05-16T13:25:35.005Z,47.30
2023-05-16T13:28:40.313Z,46.00
2023-05-16T13:31:41.990Z,46.40
2023-05-16T13:34:43.690Z,45.60
2023-05-16T13:37:45.816Z,42.60
2023-05-16T13:40:47.804Z,42.10
2023-05-16T13:43:49.818Z,40.00
2023-05-16T13:46:51.530Z,40.30
2023-05-16T13:49:55.225Z,40.50
2023-05-16T13:52:56.953Z,40.00
2023-05-16T13:56:01.121Z,39.60
2023-05-16T13:59:06.895Z,39.90
2023-05-16T14:02:09.267Z,38.60
2023-05-16T14:05:11.057Z,39.70
2023-05-16T14:08:12.848Z,38.80
2023-05-16T14:11:14.630Z,37.80
2023-05-16T14:14:18.201Z,37.10
2023-05-16T14:17:19.866Z,38.10
2023-05-16T14:20:21.676Z,36.90
2023-05-16T14:23:23.813Z,36.00
2023-05-16T14:26:26.610Z,37.20
2023-05-16T14:29:28.466Z,37.70
2023-05-16T14:32:30.725Z,38.90
2023-05-16T14:35:33.220Z,37.50
2023-05-16T14:38:34.897Z,36.40
2023-05-16T14:41:37.395Z,35.90
2023-05-16T14:44:39.087Z,35.80
2023-05-16T14:47:41.369Z,35.90
2023-05-16T14:50:43.243Z,35.00
2023-05-16T14:53:46.913Z,36.00
2023-05-16T14:56:48.892Z,35.90
2023-05-16T14:59:50.877Z,37.40
2023-05-16T15:02:53.329Z,35.60
2023-05-16T15:05:55.127Z,36.60
2023-05-16T15:08:56.752Z,36.80
2023-05-16T15:11:58.428Z,37.10
2023-05-16T15:15:00.284Z,37.40
2023-05-16T15:18:02.048Z,37.60
2023-05-16T15:21:03.991Z,35.60
2023-05-16T15:24:06.079Z,35.30
2023-05-16T15:27:07.786Z,35.40
2023-05-16T15:30:10.584Z,36.10
2023-05-16T15:33:13.612Z,36.10
2023-05-16T15:36:15.526Z,35.00
2023-05-16T15:39:17.693Z,35.20
2023-05-16T15:42:20.132Z,35.80
2023-05-16T15:45:21.773Z,36.50
2023-05-16T15:48:23.452Z,35.20
2023-05-16T15:51:25.118Z,36.50
2023-05-16T15:54:28.495Z,37.80
2023-05-16T15:57:30.945Z,37.90
2023-05-16T16:00:32.786Z,36.90
2023-05-16T16:03:34.972Z,36.00
2023-05-16T16:06:37.055Z,36.50
2023-05-16T16:09:38.815Z,37.30
2023-05-16T16:12:42.794Z,38.30
2023-05-16T16:15:44.714Z,37.90
2023-05-16T16:18:47.000Z,37.20
2023-05-16T16:21:48.899Z,34.50
2023-05-16T16:24:50.966Z,34.60
2023-05-16T16:27:54.263Z,33.80
2023-05-16T16:30:56.097Z,34.00
2023-05-16T16:34:01.971Z,34.40
2023-05-16T16:37:04.013Z,34.60
2023-05-16T16:40:09.082Z,32.90
2023-05-16T16:43:10.975Z,33.80
2023-05-16T16:46:13.279Z,32.90
2023-05-16T16:49:14.962Z,33.20
2023-05-16T16:52:16.739Z,32.60
2023-05-16T16:55:18.452Z,33.30
2023-05-16T16:58:20.102Z,33.10
2023-05-16T17:01:23.425Z,33.00
2023-05-16T17:04:25.232Z,32.50
2023-05-16T17:07:27.232Z,33.10
2023-05-16T17:10:29.158Z,33.10
2023-05-16T17:13:34.072Z,34.70
2023-05-16T17:16:36.108Z,36.00
2023-05-16T17:19:37.749Z,37.30
2023-05-16T17:22:39.953Z,38.60
2023-05-16T17:25:41.947Z,38.40
2023-05-16T17:28:45.766Z,38.90
2023-05-16T17:31:47.385Z,39.70
2023-05-16T17:34:49.989Z,40.00
2023-05-16T17:37:54.299Z,40.10
2023-05-16T17:40:55.979Z,40.30
2023-05-16T17:43:57.587Z,40.30
2023-05-16T17:46:59.322Z,40.90
2023-05-16T17:50:01.218Z,40.90
2023-05-16T17:53:03.177Z,41.70
2023-05-16T17:56:05.213Z,42.20
2023-05-16T17:59:06.881Z,41.70
2023-05-16T18:02:09.908Z,42.30
2023-05-16T18:05:12.123Z,41.80
2023-05-16T18:08:13.871Z,40.80
2023-05-16T18:11:15.717Z,39.50
2023-05-16T18:14:17.408Z,39.70
2023-05-16T18:17:19.807Z,39.80
2023-05-16T18:20:21.859Z,39.60
2023-05-16T18:23:24.827Z,40.30
2023-05-16T18:26:28.435Z,41.30
2023-05-16T18:29:30.389Z,41.80
2023-05-16T18:32:32.686Z,42.60
2023-05-16T18:35:34.552Z,43.20
2023-05-16T18:38:36.321Z,43.60
2023-05-16T18:41:38.150Z,43.10
2023-05-16T18:44:39.863Z,44.00
2023-05-16T18:47:42.003Z,44.10
2023-05-16T18:50:44.062Z,43.80
2023-05-16T18:53:45.718Z,44.30
2023-05-16T18:56:47.536Z,44.30
2023-05-16T18:59:51.014Z,44.50
2023-05-16T19:02:55.884Z,44.30
2023-05-16T19:05:58.286Z,44.80
2023-05-16T19:09:00.029Z,45.00
2023-05-16T19:12:01.745Z,45.50
2023-05-16T19:15:04.083Z,45.60
2023-05-16T19:18:06.284Z,45.70
2023-05-16T19:21:08.512Z,46.10
2023-05-16T19:24:10.271Z,46.60
2023-05-16T19:27:12.127Z,46.70
2023-05-16T19:30:13.904Z,46.90
2023-05-16T19:33:16.477Z,47.20
2023-05-16T19:36:18.406Z,47.50
2023-05-16T19:39:20.197Z,48.00
2023-05-16T19:42:21.884Z,48.50
2023-05-16T19:45:23.874Z,48.90
2023-05-16T19:48:25.834Z,49.20
2023-05-16T19:51:40.733Z,49.50
2023-05-16T19:54:43.848Z,49.80
2023-05-16T19:57:45.882Z,49.90
2023-05-16T20:00:47.580Z,50.40
2023-05-16T20:03:49.356Z,50.50
2023-05-16T20:06:51.822Z,50.80
2023-05-16T20:09:53.635Z,51.20
2023-05-16T20:12:55.663Z,51.50
2023-05-16T20:15:58.069Z,51.90
2023-05-16T20:19:00.002Z,52.20
2023-05-16T20:22:01.843Z,52.60
2023-05-16T20:25:03.885Z,53.10
2023-05-16T20:28:05.653Z,53.50
2023-05-16T20:31:08.008Z,54.10
2023-05-16T20:34:10.708Z,54.30
2023-05-16T20:37:13.533Z,54.80
2023-05-16T20:40:15.186Z,54.80
2023-05-16T20:43:17.075Z,55.10
2023-05-16T20:46:18.734Z,55.10
2023-05-16T20:49:20.474Z,55.10
2023-05-16T20:52:23.139Z,55.50
2023-05-16T20:55:26.069Z,55.70
2023-05-16T20:58:27.869Z,55.90
2023-05-16T21:01:29.708Z,56.10
2023-05-16T21:04:31.858Z,56.50
2023-05-16T21:07:33.735Z,56.60
2023-05-16T21:10:35.416Z,56.80
2023-05-16T21:13:37.039Z,57.20
2023-05-16T21:16:38.688Z,57.20
2023-05-16T21:19:40.417Z,57.50
2023-05-16T21:22:42.449Z,57.70
2023-05-16T21:25:44.257Z,57.70
2023-05-16T21:28:54.405Z,58.10
2023-05-16T21:31:57.355Z,58.50
2023-05-16T21:35:04.672Z,59.10
2023-05-16T21:38:06.394Z,59.30
2023-05-16T21:41:08.114Z,59.60
2023-05-16T21:44:13.355Z,60.00
2023-05-16T21:47:15.066Z,60.40
2023-05-16T21:50:18.135Z,60.70
2023-05-16T21:53:19.773Z,61.10
2023-05-16T21:56:21.958Z,61.40
2023-05-16T21:59:23.658Z,61.80
2023-05-16T22:02:25.532Z,62.40
2023-05-16T22:05:27.529Z,62.90
2023-05-16T22:08:29.511Z,63.60
2023-05-16T22:11:31.714Z,64.20
2023-05-16T22:14:33.688Z,64.30
2023-05-16T22:17:35.713Z,64.80
2023-05-16T22:20:37.473Z,65.40
2023-05-16T22:23:39.132Z,65.50
2023-05-16T22:26:40.776Z,65.80
2023-05-16T22:29:42.470Z,66.00
2023-05-16T22:32:45.693Z,66.30
2023-05-16T22:35:47.628Z,66.80
2023-05-16T22:38:49.287Z,67.60
2023-05-16T22:41:51.476Z,68.20
2023-05-16T22:44:53.136Z,68.60
2023-05-16T22:47:54.862Z,69.00
2023-05-16T22:50:57.310Z,69.60
2023-05-16T22:53:58.996Z,69.80
2023-05-16T22:57:00.785Z,69.90
2023-05-16T23:00:04.617Z,70.00
2023-05-16T23:03:06.400Z,70.30
2023-05-16T23:06:08.345Z,70.50
2023-05-16T23:09:09.988Z,70.30
2023-05-16T23:12:11.646Z,70.30
2023-05-16T23:15:13.391Z,70.30
2023-05-16T23:18:15.046Z,70.60
2023-05-16T23:21:16.713Z,70.70
2023-05-16T23:24:18.381Z,70.60
2023-05-16T23:27:19.991Z,70.70
2023-05-16T23:30:21.600Z,70.80
2023-05-16T23:33:23.307Z,70.80
2023-05-16T23:36:25.017Z,70.80
2023-05-16T23:39:26.698Z,70.70
2023-05-16T23:42:28.337Z,70.80
2023-05-16T23:45:30.292Z,71.10
2023-05-16T23:48:32.184Z,71.30
2023-05-16T23:51:52.220Z,71.30
2023-05-16T23:54:55.561Z,71.50
2023-05-16T23:57:57.178Z,71.90
